createdAt,value
2022-12-15T00:00:19.470Z,62.51
2022-12-15T00:03:06.680Z,62.18
2022-12-15T00:05:52.230Z,63.19
2022-12-15T00:08:38.147Z,63.40
2022-12-15T00:11:23.972Z,62.84
2022-12-15T00:14:09.999Z,63.54
2022-12-15T00:16:55.923Z,63.59
2022-12-15T00:19:43.113Z,63.35
2022-12-15T00:22:28.671Z,63.12
2022-12-15T00:25:14.649Z,63.18
2022-12-15T00:28:00.434Z,62.97
2022-12-15T00:30:49.788Z,63.78
2022-12-15T00:33:36.523Z,63.71
2022-12-15T00:36:24.324Z,62.95
2022-12-15T00:38:52.437Z,63.80
2022-12-15T00:41:20.532Z,63.37
2022-12-15T00:43:48.748Z,63.29
2022-12-15T00:46:34.451Z,63.42
2022-12-15T00:49:03.424Z,63.50
2022-12-15T00:51:50.407Z,63.18
2022-12-15T00:54:36.073Z,63.26
2022-12-15T00:57:21.658Z,63.35
2022-12-15T01:00:07.713Z,63.60
2022-12-15T01:02:53.425Z,63.18
2022-12-15T01:05:39.414Z,63.19
2022-12-15T01:08:26.400Z,62.79
2022-12-15T01:11:11.982Z,63.09
2022-12-15T01:13:58.017Z,63.25
2022-12-15T01:16:44.002Z,62.82
2022-12-15T01:19:29.884Z,62.95
2022-12-15T01:21:57.964Z,63.11
2022-12-15T01:24:27.445Z,63.46
2022-12-15T01:26:56.710Z,63.10
2022-12-15T01:29:25.145Z,62.70
2022-12-15T01:31:53.293Z,62.50
2022-12-15T01:34:22.688Z,63.05
2022-12-15T01:36:50.804Z,62.95
2022-12-15T01:39:18.910Z,63.40
2022-12-15T01:41:47.887Z,62.59
2022-12-15T01:44:19.179Z,62.19
2022-12-15T01:46:49.985Z,62.73
2022-12-15T01:49:23.126Z,63.13
2022-12-15T01:51:56.621Z,63.86
2022-12-15T01:54:30.086Z,63.26
2022-12-15T01:57:05.635Z,62.97
2022-12-15T01:59:38.516Z,62.82
2022-12-15T02:02:07.103Z,62.84
2022-12-15T02:04:37.792Z,62.97
2022-12-15T02:07:06.020Z,62.73
2022-12-15T02:09:34.373Z,62.33
2022-12-15T02:12:16.605Z,62.52
2022-12-15T02:14:59.867Z,62.19
2022-12-15T02:17:41.077Z,62.27
2022-12-15T02:20:50.261Z,62.62
2022-12-15T02:24:11.452Z,62.16
2022-12-15T02:27:22.790Z,62.38
2022-12-15T02:30:23.580Z,62.89
2022-12-15T02:33:18.544Z,62.90
2022-12-15T02:36:00.367Z,62.63
2022-12-15T02:38:35.149Z,61.85
2022-12-15T02:41:05.812Z,62.17
2022-12-15T02:43:38.924Z,61.87
2022-12-15T02:46:23.709Z,62.29
2022-12-15T02:49:05.660Z,62.41
2022-12-15T02:51:45.064Z,62.09
2022-12-15T02:54:36.121Z,62.70
2022-12-15T02:57:14.629Z,62.52
2022-12-15T02:59:55.330Z,62.66
2022-12-15T03:02:27.936Z,62.52
2022-12-15T03:04:56.781Z,62.22
2022-12-15T03:07:27.771Z,62.58
2022-12-15T03:09:57.173Z,62.71
2022-12-15T03:12:25.426Z,62.64
2022-12-15T03:14:53.524Z,62.43
2022-12-15T03:17:21.558Z,62.58
2022-12-15T03:19:50.929Z,62.99
2022-12-15T03:22:19.102Z,63.03
2022-12-15T03:24:48.256Z,63.25
2022-12-15T03:27:16.564Z,63.69
2022-12-15T03:29:44.685Z,63.52
2022-12-15T03:32:12.781Z,63.59
2022-12-15T03:34:41.831Z,63.65
2022-12-15T03:37:13.400Z,63.33
2022-12-15T03:39:41.462Z,63.68
2022-12-15T03:42:09.620Z,63.35
2022-12-15T03:44:37.694Z,63.97
2022-12-15T03:47:05.814Z,63.66
2022-12-15T03:49:34.150Z,63.82
2022-12-15T03:52:02.921Z,63.16
2022-12-15T03:54:32.344Z,63.15
2022-12-15T03:57:00.539Z,63.65
2022-12-15T03:59:28.581Z,63.67
2022-12-15T04:01:56.705Z,63.47
2022-12-15T04:04:24.810Z,63.50
2022-12-15T04:06:52.913Z,63.43
2022-12-15T04:09:21.005Z,63.30
2022-12-15T04:11:50.433Z,63.42
2022-12-15T04:14:18.445Z,63.25
2022-12-15T04:16:46.564Z,63.18
2022-12-15T04:19:32.360Z,63.85
2022-12-15T04:25:12.296Z,63.48
2022-12-15T04:28:01.717Z,64.47
2022-12-15T04:30:49.479Z,64.19
2022-12-15T04:33:36.051Z,63.55
2022-12-15T04:36:22.680Z,63.99
2022-12-15T04:39:08.515Z,64.22
2022-12-15T04:41:54.069Z,64.36
2022-12-15T04:44:41.305Z,64.16
2022-12-15T04:47:27.488Z,64.44
2022-12-15T04:50:13.458Z,64.19
2022-12-15T04:52:59.528Z,64.72
2022-12-15T04:55:45.495Z,64.30
2022-12-15T04:58:31.069Z,64.44
2022-12-15T05:01:18.356Z,64.42
2022-12-15T05:04:04.640Z,64.11
2022-12-15T05:06:50.605Z,64.32
2022-12-15T05:09:36.397Z,64.44
2022-12-15T05:12:22.074Z,63.59
2022-12-15T05:15:07.756Z,64.34
2022-12-15T05:17:54.817Z,64.00
2022-12-15T05:20:40.625Z,64.09
2022-12-15T05:23:26.158Z,63.73
2022-12-15T05:26:11.823Z,63.43
2022-12-15T05:28:57.412Z,64.20
2022-12-15T05:31:43.185Z,64.63
2022-12-15T05:34:12.665Z,63.28
2022-12-15T05:36:40.715Z,63.52
2022-12-15T05:39:08.955Z,63.81
2022-12-15T05:41:37.031Z,64.20
2022-12-15T05:44:05.481Z,63.88
2022-12-15T05:46:33.670Z,63.37
2022-12-15T05:49:05.003Z,62.59
2022-12-15T05:51:35.018Z,62.73
2022-12-15T05:54:03.163Z,63.97
2022-12-15T05:56:31.909Z,63.84
2022-12-15T05:59:00.123Z,64.47
2022-12-15T06:01:31.413Z,64.52
2022-12-15T06:04:00.177Z,63.45
2022-12-15T06:06:28.407Z,63.61
2022-12-15T06:08:58.153Z,63.85
2022-12-15T06:11:26.476Z,64.07
2022-12-15T06:13:56.060Z,64.18
2022-12-15T06:16:27.960Z,63.13
2022-12-15T06:18:59.077Z,63.67
2022-12-15T06:21:30.558Z,63.73
2022-12-15T06:24:00.649Z,63.26
2022-12-15T06:26:33.612Z,63.17
2022-12-15T06:29:05.482Z,63.66
2022-12-15T06:31:34.425Z,63.16
2022-12-15T06:34:06.600Z,63.42
2022-12-15T06:36:35.181Z,63.14
2022-12-15T06:39:08.297Z,63.96
2022-12-15T06:41:36.708Z,63.64
2022-12-15T06:44:05.891Z,63.32
2022-12-15T06:46:35.018Z,63.12
2022-12-15T06:49:03.387Z,63.29
2022-12-15T06:51:32.224Z,63.14
2022-12-15T06:54:01.662Z,63.07
2022-12-15T06:56:34.911Z,63.48
2022-12-15T06:59:04.874Z,63.50
2022-12-15T07:01:33.828Z,63.52
2022-12-15T07:04:05.418Z,63.27
2022-12-15T07:06:37.175Z,63.13
2022-12-15T07:09:12.863Z,63.06
2022-12-15T07:11:42.265Z,62.99
2022-12-15T07:14:12.310Z,63.00
2022-12-15T07:16:41.313Z,62.53
2022-12-15T07:19:13.257Z,62.79
2022-12-15T07:21:42.100Z,62.68
2022-12-15T07:24:12.904Z,62.12
2022-12-15T07:26:43.171Z,61.45
2022-12-15T07:29:14.927Z,62.29
2022-12-15T07:31:46.439Z,62.39
2022-12-15T07:34:14.578Z,62.70
2022-12-15T07:36:47.036Z,62.67
2022-12-15T07:39:18.153Z,62.35
2022-12-15T07:41:47.525Z,62.76
2022-12-15T07:44:17.992Z,63.61
2022-12-15T07:46:49.000Z,63.87
2022-12-15T07:49:17.526Z,63.45
2022-12-15T07:51:46.140Z,63.30
2022-12-15T07:54:15.567Z,63.17
2022-12-15T07:56:43.906Z,63.84
2022-12-15T07:59:19.972Z,64.47
2022-12-15T08:01:49.223Z,63.45
2022-12-15T08:04:17.623Z,63.39
2022-12-15T08:06:46.010Z,63.09
2022-12-15T08:09:14.319Z,63.25
2022-12-15T08:11:43.039Z,63.26
2022-12-15T08:14:16.893Z,63.67
2022-12-15T08:16:47.417Z,64.29
2022-12-15T08:19:17.791Z,63.47
2022-12-15T08:21:47.694Z,63.57
2022-12-15T08:24:16.582Z,63.43
2022-12-15T08:26:49.853Z,63.72
2022-12-15T08:29:49.677Z,63.82
2022-12-15T08:32:08.411Z,63.25
2022-12-15T08:34:36.621Z,63.50
2022-12-15T08:37:04.723Z,63.33
2022-12-15T08:39:32.810Z,63.19
2022-12-15T08:42:00.892Z,63.52
2022-12-15T08:44:28.921Z,63.70
2022-12-15T08:46:57.103Z,64.34
2022-12-15T08:49:26.760Z,64.03
2022-12-15T08:51:54.799Z,64.42
2022-12-15T08:54:22.903Z,63.96
2022-12-15T08:56:51.032Z,64.08
2022-12-15T08:59:19.817Z,64.78
2022-12-15T09:01:48.476Z,64.20
2022-12-15T09:04:16.918Z,64.36
2022-12-15T09:06:50.589Z,64.57
2022-12-15T09:09:19.784Z,64.70
2022-12-15T09:11:47.952Z,65.15
2022-12-15T09:14:16.055Z,64.73
2022-12-15T09:16:44.238Z,65.28
2022-12-15T09:19:12.503Z,64.94
2022-12-15T09:21:42.986Z,64.02
2022-12-15T09:24:24.740Z,64.82
2022-12-15T09:26:54.370Z,64.56
2022-12-15T09:29:22.469Z,64.06
2022-12-15T09:31:51.018Z,64.55
2022-12-15T09:34:19.177Z,65.17
2022-12-15T09:36:47.216Z,64.96
2022-12-15T09:39:17.633Z,64.84
2022-12-15T09:41:55.443Z,65.03
2022-12-15T09:44:27.412Z,64.90
2022-12-15T09:47:09.353Z,64.41
2022-12-15T09:49:55.377Z,64.48
2022-12-15T09:52:28.925Z,64.08
2022-12-15T09:54:59.283Z,64.34
2022-12-15T09:57:37.537Z,64.24
2022-12-15T10:00:20.962Z,64.39
2022-12-15T10:03:24.418Z,64.36
2022-12-15T10:06:15.996Z,64.36
2022-12-15T10:08:50.755Z,64.47
2022-12-15T10:11:33.256Z,64.20
2022-12-15T10:14:12.997Z,64.12
2022-12-15T10:16:56.882Z,64.18
2022-12-15T10:19:35.030Z,64.05
2022-12-15T10:22:03.981Z,64.06
2022-12-15T10:27:37.603Z,64.00
2022-12-15T10:30:10.403Z,63.91
2022-12-15T10:32:50.716Z,63.87
2022-12-15T10:35:25.118Z,64.02
2022-12-15T10:37:53.195Z,64.14
2022-12-15T10:40:50.149Z,64.15
2022-12-15T10:43:29.245Z,63.64
2022-12-15T10:46:13.457Z,64.36
2022-12-15T10:48:42.729Z,64.53
2022-12-15T10:51:25.956Z,64.09
2022-12-15T10:54:04.489Z,63.71
2022-12-15T10:56:34.976Z,64.33
2022-12-15T10:59:28.803Z,64.04
2022-12-15T11:02:37.077Z,63.60
2022-12-15T11:05:16.081Z,63.49
2022-12-15T11:07:47.568Z,63.45
2022-12-15T11:10:21.759Z,63.83
2022-12-15T11:13:12.953Z,63.42
2022-12-15T11:15:50.468Z,63.91
2022-12-15T11:18:39.331Z,63.93
2022-12-15T11:21:13.624Z,63.65
2022-12-15T11:23:52.665Z,63.75
2022-12-15T11:26:31.664Z,63.66
2022-12-15T11:29:03.386Z,63.46
2022-12-15T11:31:41.091Z,63.26
2022-12-15T11:34:15.272Z,63.46
2022-12-15T11:37:04.683Z,63.56
2022-12-15T11:40:05.709Z,63.51
2022-12-15T11:45:55.585Z,63.86
2022-12-15T11:48:35.787Z,63.07
2022-12-15T11:51:11.827Z,63.75
2022-12-15T11:54:03.451Z,63.45
2022-12-15T11:56:37.994Z,63.45
2022-12-15T11:59:30.910Z,62.88
2022-12-15T12:02:27.934Z,63.12
2022-12-15T12:05:31.066Z,63.46
2022-12-15T12:08:14.486Z,63.58
2022-12-15T12:10:54.116Z,62.94
2022-12-15T12:13:39.903Z,62.98
2022-12-15T12:16:22.007Z,63.33
2022-12-15T12:18:58.063Z,62.98
2022-12-15T12:21:32.825Z,63.81
2022-12-15T12:24:05.316Z,63.51
2022-12-15T12:26:41.516Z,63.92
2022-12-15T12:29:18.147Z,64.06
2022-12-15T12:32:04.461Z,63.24
2022-12-15T12:34:43.683Z,63.71
2022-12-15T12:37:23.752Z,63.62
2022-12-15T12:39:54.318Z,63.32
2022-12-15T12:42:30.238Z,63.71
2022-12-15T12:44:58.338Z,63.42
2022-12-15T12:47:31.713Z,63.03
2022-12-15T12:50:03.629Z,62.74
2022-12-15T12:52:36.976Z,63.23
2022-12-15T12:55:28.074Z,62.75
2022-12-15T12:57:56.591Z,62.59
2022-12-15T13:00:30.899Z,62.63
2022-12-15T13:03:22.021Z,63.03
2022-12-15T13:05:54.368Z,62.77
2022-12-15T13:08:52.609Z,62.84
2022-12-15T13:11:58.684Z,62.82
2022-12-15T13:14:48.323Z,62.83
2022-12-15T13:17:31.732Z,63.01
2022-12-15T13:20:25.736Z,63.08
2022-12-15T13:22:55.047Z,62.89
2022-12-15T13:25:41.369Z,62.66
2022-12-15T13:28:50.619Z,62.92
2022-12-15T13:31:28.577Z,63.09
2022-12-15T13:34:18.915Z,62.73
2022-12-15T13:36:56.884Z,62.69
2022-12-15T13:39:58.789Z,63.11
2022-12-15T13:45:50.639Z,62.76
2022-12-15T13:48:35.781Z,63.03
2022-12-15T13:51:27.672Z,63.18
2022-12-15T13:54:01.241Z,63.31
2022-12-15T13:56:56.554Z,62.44
2022-12-15T13:59:41.443Z,63.00
2022-12-15T14:02:26.996Z,63.24
2022-12-15T14:05:14.956Z,63.41
2022-12-15T14:07:54.204Z,63.43
2022-12-15T14:10:26.338Z,63.43
2022-12-15T14:12:59.031Z,63.80
2022-12-15T14:15:32.488Z,62.70
2022-12-15T14:18:03.281Z,63.32
2022-12-15T14:20:41.255Z,62.93
2022-12-15T14:23:20.614Z,62.84
2022-12-15T14:25:58.030Z,63.04
2022-12-15T14:28:30.094Z,63.35
2022-12-15T14:31:04.990Z,62.89
2022-12-15T14:33:38.400Z,62.49
2022-12-15T14:36:11.328Z,62.52
2022-12-15T14:38:46.151Z,63.04
2022-12-15T14:41:21.760Z,63.63
2022-12-15T14:44:31.441Z,63.40
2022-12-15T14:46:40.652Z,63.18
2022-12-15T14:49:10.975Z,63.45
2022-12-15T14:51:48.202Z,63.47
2022-12-15T14:54:31.331Z,63.03
2022-12-15T14:57:02.628Z,63.07
2022-12-15T14:59:35.875Z,63.75
2022-12-15T15:02:15.729Z,63.52
2022-12-15T15:03:05.500Z,63.08
2022-12-15T15:03:13.941Z,63.23
2022-12-15T15:04:43.842Z,63.41
2022-12-15T15:07:19.189Z,63.68
2022-12-15T15:09:47.834Z,63.22
2022-12-15T15:12:18.757Z,63.54
2022-12-15T15:14:50.226Z,63.41
2022-12-15T15:17:27.296Z,62.71
2022-12-15T15:19:59.696Z,63.28
2022-12-15T15:22:41.118Z,63.44
2022-12-15T15:25:39.930Z,63.03
2022-12-15T15:28:21.234Z,63.99
2022-12-15T15:30:51.188Z,63.43
2022-12-15T15:33:27.044Z,64.50
2022-12-15T15:35:57.971Z,64.49
2022-12-15T15:38:29.649Z,63.93
2022-12-15T15:41:00.462Z,64.79
2022-12-15T15:43:29.927Z,64.04
2022-12-15T15:46:03.916Z,64.09
2022-12-15T15:48:38.136Z,64.47
2022-12-15T15:51:07.202Z,64.35
2022-12-15T15:53:36.485Z,63.88
2022-12-15T15:56:07.951Z,63.66
2022-12-15T15:58:36.713Z,63.96
2022-12-15T16:01:11.151Z,64.10
2022-12-15T16:03:43.029Z,63.50
2022-12-15T16:06:18.290Z,63.63
2022-12-15T16:08:48.333Z,64.20
2022-12-15T16:11:16.666Z,63.77
2022-12-15T16:13:45.217Z,63.48
2022-12-15T16:16:20.674Z,63.93
2022-12-15T16:18:50.153Z,63.57
2022-12-15T16:21:20.671Z,64.30
2022-12-15T16:23:49.688Z,63.82
2022-12-15T16:26:28.959Z,64.06
2022-12-15T16:28:57.199Z,63.87
2022-12-15T16:31:40.973Z,64.14
2022-12-15T16:34:11.414Z,64.29
2022-12-15T16:36:40.094Z,63.95
2022-12-15T16:39:25.763Z,63.86
2022-12-15T16:41:56.216Z,63.61
2022-12-15T16:44:25.190Z,63.65
2022-12-15T16:46:53.813Z,63.21
2022-12-15T16:49:23.479Z,63.64
2022-12-15T16:51:54.546Z,63.85
2022-12-15T16:54:27.824Z,63.90
2022-12-15T16:56:57.769Z,64.27
2022-12-15T16:59:35.649Z,64.29
2022-12-15T17:02:24.699Z,63.85
2022-12-15T17:04:55.888Z,63.76
2022-12-15T17:07:26.083Z,64.12
2022-12-15T17:09:54.391Z,63.98
2022-12-15T17:12:22.431Z,64.14
2022-12-15T17:14:50.465Z,63.58
2022-12-15T17:17:21.070Z,63.83
2022-12-15T17:20:19.692Z,63.71
2022-12-15T17:22:39.231Z,63.83
2022-12-15T17:25:14.011Z,63.85
2022-12-15T17:27:42.013Z,63.62
2022-12-15T17:30:16.511Z,63.97
2022-12-15T17:32:45.652Z,63.68
2022-12-15T17:35:14.127Z,63.76
2022-12-15T17:37:45.108Z,63.71
2022-12-15T17:40:22.270Z,63.67
2022-12-15T17:45:24.132Z,63.33
2022-12-15T17:47:52.916Z,63.28
2022-12-15T17:50:20.954Z,63.74
2022-12-15T17:52:50.314Z,63.40
2022-12-15T17:55:24.329Z,63.97
2022-12-15T17:57:55.390Z,63.72
2022-12-15T18:00:27.535Z,63.70
2022-12-15T18:02:57.387Z,63.46
2022-12-15T18:05:28.489Z,63.43
2022-12-15T18:08:01.212Z,63.18
2022-12-15T18:10:33.544Z,63.33
2022-12-15T18:13:31.776Z,62.73
2022-12-15T18:16:27.176Z,62.72
2022-12-15T18:18:55.444Z,63.39
2022-12-15T18:21:24.886Z,63.22
2022-12-15T18:23:54.272Z,62.70
2022-12-15T18:26:22.364Z,63.15
2022-12-15T18:28:50.551Z,62.93
2022-12-15T18:31:25.720Z,62.50
2022-12-15T18:33:53.962Z,62.56
2022-12-15T18:36:24.475Z,62.75
2022-12-15T18:38:54.469Z,62.46
2022-12-15T18:41:22.975Z,62.76
2022-12-15T18:43:51.905Z,62.43
2022-12-15T18:46:20.293Z,62.18
2022-12-15T18:48:48.353Z,62.30
2022-12-15T18:51:18.786Z,61.72
2022-12-15T18:53:48.485Z,61.54
2022-12-15T18:56:21.986Z,62.60
2022-12-15T18:58:50.079Z,62.21
2022-12-15T19:01:18.130Z,61.75
2022-12-15T19:03:46.358Z,61.68
2022-12-15T19:06:25.967Z,61.70
2022-12-15T19:08:54.649Z,61.96
2022-12-15T19:11:30.981Z,60.84
2022-12-15T19:14:00.475Z,59.71
2022-12-15T19:16:49.415Z,58.77
2022-12-15T19:19:35.361Z,56.84
2022-12-15T19:22:29.477Z,55.95
2022-12-15T19:24:58.482Z,55.94
2022-12-15T19:27:28.155Z,54.93
2022-12-15T19:29:56.659Z,54.81
2022-12-15T19:32:25.697Z,53.93
2022-12-15T19:34:53.754Z,53.54
2022-12-15T19:37:26.904Z,53.72
2022-12-15T19:39:56.440Z,53.68
2022-12-15T19:42:31.863Z,53.13
2022-12-15T19:45:01.348Z,52.67
2022-12-15T19:47:30.020Z,53.29
2022-12-15T19:49:58.116Z,53.00
2022-12-15T19:52:27.088Z,52.82
2022-12-15T19:54:55.195Z,52.45
2022-12-15T19:57:23.200Z,52.55
2022-12-15T19:59:52.568Z,52.07
2022-12-15T20:02:23.015Z,52.45
2022-12-15T20:04:51.090Z,52.74
2022-12-15T20:07:27.073Z,52.56
2022-12-15T20:09:55.877Z,52.43
2022-12-15T20:12:24.454Z,52.33
2022-12-15T20:14:54.410Z,52.23
2022-12-15T20:17:22.497Z,51.91
2022-12-15T20:19:50.561Z,51.59
2022-12-15T20:22:20.069Z,52.32
2022-12-15T20:24:48.880Z,51.88
2022-12-15T20:27:20.256Z,52.10
2022-12-15T20:29:48.356Z,51.97
2022-12-15T20:32:21.114Z,51.21
2022-12-15T20:34:49.512Z,51.01
2022-12-15T20:37:22.459Z,51.04
2022-12-15T20:39:56.969Z,50.76
2022-12-15T20:42:26.334Z,51.31
2022-12-15T20:44:54.598Z,51.84
2022-12-15T20:47:27.444Z,51.20
2022-12-15T20:49:56.323Z,51.53
2022-12-15T20:52:27.250Z,51.66
2022-12-15T20:54:56.116Z,51.02
2022-12-15T20:57:24.239Z,50.83
2022-12-15T20:59:52.211Z,52.13
2022-12-15T21:02:24.051Z,51.76
2022-12-15T21:04:52.767Z,51.12
2022-12-15T21:07:20.931Z,50.99
2022-12-15T21:09:49.099Z,51.00
2022-12-15T21:12:19.537Z,50.42
2022-12-15T21:14:47.970Z,51.17
2022-12-15T21:17:18.199Z,51.25
2022-12-15T21:19:47.813Z,50.67
2022-12-15T21:22:22.136Z,51.21
2022-12-15T21:24:52.577Z,51.14
2022-12-15T21:27:22.087Z,51.26
2022-12-15T21:29:52.823Z,50.97
2022-12-15T21:32:21.391Z,50.29
2022-12-15T21:34:51.801Z,50.71
2022-12-15T21:37:26.418Z,51.20
2022-12-15T21:39:55.170Z,51.68
2022-12-15T21:42:23.856Z,50.78
2022-12-15T21:44:52.025Z,51.48
2022-12-15T21:47:47.754Z,50.57
2022-12-15T21:50:17.122Z,50.66
2022-12-15T21:52:46.686Z,50.85
2022-12-15T21:55:17.263Z,51.27
2022-12-15T21:57:45.458Z,50.97
2022-12-15T22:00:16.698Z,51.20
2022-12-15T22:02:45.702Z,51.64
2022-12-15T22:05:20.401Z,51.17
2022-12-15T22:07:48.760Z,51.55
2022-12-15T22:10:17.584Z,52.02
2022-12-15T22:12:58.973Z,52.61
2022-12-15T22:15:27.349Z,52.09
2022-12-15T22:17:55.925Z,52.97
2022-12-15T22:20:26.327Z,52.18
2022-12-15T22:22:54.346Z,52.17
2022-12-15T22:25:25.616Z,51.98
2022-12-15T22:27:54.871Z,51.96
2022-12-15T22:30:26.047Z,52.02
2022-12-15T22:32:54.300Z,51.40
2022-12-15T22:35:27.318Z,52.44
2022-12-15T22:37:58.087Z,51.48
2022-12-15T22:40:27.023Z,52.28
2022-12-15T22:42:58.043Z,52.28
2022-12-15T22:45:26.270Z,53.33
2022-12-15T22:47:54.997Z,54.18
2022-12-15T22:50:27.155Z,54.53
2022-12-15T22:52:55.404Z,55.70
2022-12-15T22:55:25.199Z,56.02
2022-12-15T22:58:00.561Z,56.92
2022-12-15T23:00:28.666Z,56.91
2022-12-15T23:05:32.880Z,57.94
2022-12-15T23:08:00.948Z,58.18
2022-12-15T23:10:46.718Z,58.52
2022-12-15T23:13:14.733Z,58.17
2022-12-15T23:16:00.879Z,58.43
2022-12-15T23:18:28.958Z,59.00
2022-12-15T23:20:58.574Z,59.27
2022-12-15T23:23:28.011Z,59.62
2022-12-15T23:25:56.399Z,59.48
2022-12-15T23:28:24.719Z,59.68
2022-12-15T23:30:54.479Z,59.64
2022-12-15T23:33:24.896Z,59.47
2022-12-15T23:35:54.919Z,59.54
2022-12-15T23:38:24.846Z,59.12
2022-12-15T23:40:55.087Z,59.62
2022-12-15T23:43:24.671Z,60.21
2022-12-15T23:46:06.513Z,59.96
2022-12-15T23:48:37.005Z,59.57
2022-12-15T23:51:08.193Z,59.88
2022-12-15T23:53:38.716Z,60.49
2022-12-15T23:56:12.843Z,60.40
2022-12-15T23:58:42.681Z,60.43
